Time;durP1;ratioP1;P1;durP2;ratioP2;P2;SDS_P1;SDS_P2;PMS_P1;PMS_P2;Temp;Humidity;BMP_temperature;BMP_pressure;BME280_temperature;BME280_humidity;BME280_pressure;Samples;Min_cycle;Max_cycle;Signal;HPM_P1;HPM_P2
2021/05/02 00:01:16;;;;;;;21.17;17.67;;;17.90;91.20;;;;;;5059361;28;20028;-68
2021/05/02 00:03:43;;;;;;;20.90;17.58;;;18.00;90.80;;;;;;5060869;28;20699;-68
2021/05/02 00:06:12;;;;;;;23.98;18.65;;;18.10;90.70;;;;;;5059189;28;20046;-67
2021/05/02 00:08:39;;;;;;;22.58;18.15;;;18.10;91.00;;;;;;5061936;28;20024;-68
2021/05/02 00:11:09;;;;;;;22.65;19.52;;;18.10;90.50;;;;;;5058853;28;20025;-66
2021/05/02 00:13:37;;;;;;;25.15;20.13;;;18.20;90.90;;;;;;5055894;28;20373;-66
2021/05/02 00:16:06;;;;;;;25.98;21.00;;;18.20;90.70;;;;;;5057807;28;20025;-67
2021/05/02 00:18:35;;;;;;;25.77;20.80;;;18.20;90.80;;;;;;5061478;28;20514;-69
2021/05/02 00:21:05;;;;;;;26.52;22.35;;;18.20;91.50;;;;;;5055344;28;20032;-67
2021/05/02 00:23:36;;;;;;;26.88;23.48;;;18.30;90.60;;;;;;5052829;28;20032;-70
2021/05/02 00:26:04;;;;;;;28.27;23.23;;;18.20;90.40;;;;;;5056641;28;20528;-69
2021/05/02 00:28:38;;;;;;;30.05;24.73;;;18.10;90.50;;;;;;5060590;28;20055;-69
2021/05/02 00:31:07;;;;;;;31.30;24.90;;;18.00;91.10;;;;;;5059905;28;20037;-69
2021/05/02 00:33:35;;;;;;;30.55;23.45;;;18.00;91.20;;;;;;5059601;28;20048;-69
2021/05/02 00:36:04;;;;;;;31.38;24.65;;;18.00;91.80;;;;;;5054849;28;20067;-68
2021/05/02 00:38:37;;;;;;;26.75;23.15;;;18.20;91.50;;;;;;5056689;28;20539;-68
2021/05/02 00:41:12;;;;;;;31.92;25.42;;;18.50;90.90;;;;;;5057283;28;20096;-68
2021/05/02 00:44:06;;;;;;;31.23;24.85;;;18.70;90.40;;;;;;5059796;28;20059;-69
2021/05/02 00:46:38;;;;;;;27.15;21.90;;;18.70;90.10;;;;;;5059012;28;20020;-70
2021/05/02 00:49:05;;;;;;;;;;;19.00;89.70;;;;;;5060980;28;20061;-68
2021/05/02 00:51:39;;;;;;;26.48;21.88;;;19.20;88.20;;;;;;5057217;28;19915;-67
2021/05/02 00:54:17;;;;;;;26.95;23.10;;;19.40;86.70;;;;;;5054913;28;20563;-67
2021/05/02 00:56:59;;;;;;;30.15;25.17;;;19.50;85.90;;;;;;5058057;28;20793;-69
2021/05/02 00:59:43;;;;;;;30.35;26.65;;;19.20;86.50;;;;;;5057462;28;20041;-74
2021/05/02 01:02:14;;;;;;;28.80;24.00;;;19.20;86.60;;;;;;5058871;28;20036;-67
2021/05/02 01:04:44;;;;;;;35.87;29.00;;;19.20;87.10;;;;;;5058479;28;20036;-67
2021/05/02 01:07:22;;;;;;;28.90;25.80;;;19.20;87.90;;;;;;5060506;28;20025;-71
2021/05/02 01:09:50;;;;;;;34.53;26.92;;;19.30;87.00;;;;;;5059538;28;20115;-67
2021/05/02 01:12:20;;;;;;;32.17;26.75;;;19.40;86.70;;;;;;5059346;28;20044;-65
2021/05/02 01:14:55;;;;;;;27.85;24.63;;;19.40;86.40;;;;;;5056601;28;20089;-67
2021/05/02 01:17:25;;;;;;;30.63;26.77;;;19.60;86.60;;;;;;5058004;28;20024;-67
2021/05/02 01:19:53;;;;;;;29.25;25.67;;;19.80;85.10;;;;;;5058042;28;20021;-68
2021/05/02 01:22:22;;;;;;;29.80;24.27;;;19.90;84.00;;;;;;5054776;28;20120;-70
2021/05/02 01:24:53;;;;;;;28.00;25.02;;;20.10;84.70;;;;;;5056638;28;20028;-67
2021/05/02 01:27:32;;;;;;;28.80;25.70;;;20.30;82.20;;;;;;5055329;28;20035;-71
2021/05/02 01:30:01;;;;;;;30.55;27.15;;;20.60;82.70;;;;;;5057638;28;20033;-67
2021/05/02 01:32:30;;;;;;;28.08;24.17;;;20.80;81.70;;;;;;5058609;28;20027;-65
2021/05/02 01:34:58;;;;;;;37.80;28.23;;;20.80;82.00;;;;;;5056008;28;20040;-66
2021/05/02 01:37:25;;;;;;;33.47;27.55;;;21.00;81.60;;;;;;5055813;28;20025;-69
2021/05/02 01:39:52;;;;;;;28.20;25.15;;;21.10;79.70;;;;;;5054377;28;20096;-68
2021/05/02 01:42:20;;;;;;;26.60;23.67;;;21.10;78.50;;;;;;5056248;28;20455;-71
2021/05/02 01:44:48;;;;;;;26.77;21.90;;;21.00;78.90;;;;;;5057328;28;20071;-69
2021/05/02 01:47:20;;;;;;;25.95;20.45;;;21.00;79.20;;;;;;5061037;28;20059;-69
2021/05/02 01:49:57;;;;;;;26.25;22.13;;;21.10;78.50;;;;;;5054813;28;20017;-69
2021/05/02 01:52:27;;;;;;;27.13;23.25;;;21.40;78.80;;;;;;5056198;28;20497;-68
2021/05/02 01:54:56;;;;;;;31.80;25.42;;;21.80;78.10;;;;;;5057314;28;20120;-69
2021/05/02 01:57:27;;;;;;;37.67;25.70;;;22.00;76.70;;;;;;5055172;28;20021;-70
2021/05/02 01:59:59;;;;;;;26.27;22.25;;;22.20;75.20;;;;;;5056077;28;20568;-70
2021/05/02 02:02:27;;;;;;;25.55;19.13;;;22.20;75.00;;;;;;5054612;28;20485;-72
2021/05/02 02:04:58;;;;;;;24.45;18.27;;;22.20;73.20;;;;;;5055951;28;20028;-70
2021/05/02 02:07:25;;;;;;;25.38;18.65;;;22.40;72.50;;;;;;5056392;28;20470;-70
2021/05/02 02:09:53;;;;;;;20.80;16.25;;;22.50;72.10;;;;;;5055498;28;20032;-69
2021/05/02 02:12:21;;;;;;;19.95;17.20;;;22.40;71.80;;;;;;5056216;28;20131;-70
2021/05/02 02:14:51;;;;;;;20.48;16.88;;;22.70;73.00;;;;;;5058755;28;20043;-69
2021/05/02 02:17:20;;;;;;;22.42;17.48;;;23.00;71.70;;;;;;5052770;28;20420;-72
2021/05/02 02:19:48;;;;;;;17.75;15.77;;;23.10;71.10;;;;;;5057499;28;20060;-65
2021/05/02 02:22:17;;;;;;;13.25;11.77;;;23.20;69.50;;;;;;5056882;28;20021;-69
2021/05/02 02:25:03;;;;;;;14.00;12.45;;;23.10;68.10;;;;;;5058905;28;20614;-68
2021/05/02 02:27:32;;;;;;;11.95;10.52;;;23.00;68.90;;;;;;5060449;28;20033;-68
2021/05/02 02:30:04;;;;;;;10.93;9.80;;;22.70;68.00;;;;;;5057218;28;20100;-68
2021/05/02 02:35:20;;;;;;;11.45;7.43;;;22.60;67.80;;;;;;5057164;28;20041;-69
2021/05/02 02:37:55;;;;;;;10.38;7.70;;;22.50;68.00;;;;;;5064389;28;20074;-68
2021/05/02 02:40:24;;;;;;;10.43;9.00;;;22.50;67.90;;;;;;5065258;28;20476;-69
2021/05/02 02:42:52;;;;;;;9.02;6.95;;;22.60;68.90;;;;;;5066076;28;20023;-69
2021/05/02 02:45:19;;;;;;;10.35;7.80;;;22.80;67.80;;;;;;5066412;28;20090;-66
2021/05/02 02:47:51;;;;;;;9.35;8.05;;;23.20;66.40;;;;;;5065356;28;20471;-69
2021/05/02 02:50:22;;;;;;;7.82;7.03;;;23.30;66.00;;;;;;5068460;28;20048;-68
2021/05/02 02:53:03;;;;;;;6.82;6.15;;;23.80;63.60;;;;;;5059314;28;20117;-69
2021/05/02 02:55:32;;;;;;;9.87;6.50;;;24.20;63.00;;;;;;5066558;28;20024;-66
2021/05/02 02:58:01;;;;;;;7.50;5.90;;;24.30;63.40;;;;;;5063370;28;20642;-69
2021/05/02 03:00:31;;;;;;;8.00;6.05;;;24.30;62.20;;;;;;5066245;28;20475;-67
2021/05/02 03:03:26;;;;;;;8.77;5.65;;;24.30;61.70;;;;;;5067927;28;20097;-63
2021/05/02 03:05:55;;;;;;;8.57;5.68;;;24.40;62.40;;;;;;5064363;28;20036;-67
2021/05/02 03:08:23;;;;;;;6.00;4.95;;;24.60;62.20;;;;;;5066665;28;20016;-71
2021/05/02 03:10:52;;;;;;;6.18;4.88;;;24.60;60.70;;;;;;5068270;28;20024;-65
2021/05/02 03:13:19;;;;;;;6.05;5.07;;;24.60;61.40;;;;;;5066123;28;20488;-67
2021/05/02 03:15:48;;;;;;;7.13;4.30;;;24.60;60.70;;;;;;5066635;28;20028;-67
2021/05/02 03:18:26;;;;;;;4.43;3.72;;;24.80;61.00;;;;;;5068745;28;20438;-67
2021/05/02 03:21:07;;;;;;;5.10;4.00;;;25.10;59.60;;;;;;5066325;28;20154;-67
2021/05/02 03:23:40;;;;;;;5.78;4.22;;;25.10;59.30;;;;;;5069972;28;20074;-65
2021/05/02 03:26:09;;;;;;;8.20;4.80;;;24.90;60.10;;;;;;5071174;28;20408;-67
2021/05/02 03:28:59;;;;;;;10.43;8.02;;;24.70;60.30;;;;;;5067445;28;20107;-66
2021/05/02 03:31:33;;;;;;;5.82;5.15;;;24.70;61.10;;;;;;5070396;28;20477;-73
2021/05/02 03:34:06;;;;;;;4.90;4.40;;;24.70;61.30;;;;;;5068096;28;20501;-67
2021/05/02 03:36:54;;;;;;;7.65;5.38;;;24.90;61.30;;;;;;5070371;28;20039;-69
2021/05/02 03:39:21;;;;;;;8.38;4.65;;;25.20;61.10;;;;;;5067350;28;20092;-71
2021/05/02 03:41:48;;;;;;;6.00;4.28;;;25.20;60.30;;;;;;5068262;28;20033;-70
2021/05/02 03:44:16;;;;;;;7.50;4.68;;;25.20;60.50;;;;;;5070127;28;20025;-69
2021/05/02 03:46:43;;;;;;;7.88;5.45;;;25.00;61.30;;;;;;5069721;28;20020;-71
2021/05/02 03:49:10;;;;;;;9.20;8.20;;;24.80;61.50;;;;;;5070322;28;20036;-66
2021/05/02 03:51:40;;;;;;;7.70;6.78;;;24.60;62.40;;;;;;5070997;28;20032;-69
2021/05/02 03:54:08;;;;;;;6.53;5.60;;;24.40;63.00;;;;;;5070575;28;20070;-67
2021/05/02 03:56:39;;;;;;;6.18;5.03;;;24.20;63.80;;;;;;5070378;28;20021;-68
2021/05/02 03:59:21;;;;;;;5.70;5.17;;;24.00;64.60;;;;;;4717264;28;10000052;-69
2021/05/02 04:01:57;;;;;;;7.45;5.68;;;24.00;64.50;;;;;;5066254;28;20500;-65
2021/05/02 04:04:27;;;;;;;5.70;5.13;;;23.90;65.00;;;;;;5065385;28;20135;-65
2021/05/02 04:07:06;;;;;;;6.60;5.05;;;24.00;64.90;;;;;;5066510;28;20017;-66
2021/05/02 04:09:36;;;;;;;9.63;5.68;;;24.00;64.90;;;;;;5065597;28;20028;-64
2021/05/02 04:12:05;;;;;;;7.80;6.75;;;24.20;65.00;;;;;;5066134;28;20035;-70
2021/05/02 04:14:33;;;;;;;6.82;6.15;;;24.70;63.20;;;;;;5066110;28;20070;-70
2021/05/02 04:17:06;;;;;;;8.82;6.72;;;25.10;61.70;;;;;;5065266;28;20134;-68
2021/05/02 04:19:45;;;;;;;8.80;6.28;;;25.60;61.40;;;;;;5066239;28;20046;-69
2021/05/02 04:22:15;;;;;;;8.40;5.72;;;26.10;59.60;;;;;;5065395;28;20032;-67
2021/05/02 04:24:49;;;;;;;8.15;5.57;;;26.50;58.80;;;;;;5066921;28;20676;-69
2021/05/02 04:27:17;;;;;;;6.40;5.35;;;26.70;58.40;;;;;;5066999;28;20025;-66
2021/05/02 04:29:45;;;;;;;10.43;5.72;;;26.70;57.60;;;;;;5069408;28;20481;-67
2021/05/02 04:32:12;;;;;;;6.43;5.80;;;26.80;57.20;;;;;;5068463;28;20031;-67
2021/05/02 04:34:39;;;;;;;6.82;5.55;;;26.80;57.20;;;;;;5067335;28;20500;-66
2021/05/02 04:37:07;;;;;;;8.45;4.90;;;26.70;56.30;;;;;;5068670;28;20070;-66
2021/05/02 04:39:34;;;;;;;5.32;4.82;;;26.70;56.10;;;;;;5066535;28;20553;-65
2021/05/02 04:42:02;;;;;;;6.13;4.22;;;26.70;56.90;;;;;;5061395;28;20380;-66
2021/05/02 04:44:29;;;;;;;6.80;4.70;;;26.80;56.50;;;;;;5069337;28;20055;-65
2021/05/02 04:46:56;;;;;;;5.63;4.60;;;26.80;56.70;;;;;;5069325;28;20516;-66
2021/05/02 04:49:25;;;;;;;7.18;3.97;;;26.70;56.70;;;;;;5068107;28;20024;-62
2021/05/02 04:51:52;;;;;;;4.60;3.33;;;26.70;56.50;;;;;;5068294;28;20033;-62
2021/05/02 04:54:20;;;;;;;10.95;5.30;;;26.80;56.50;;;;;;5066889;28;20178;-66
2021/05/02 04:56:48;;;;;;;6.93;4.30;;;26.90;56.60;;;;;;5068066;28;20571;-67
2021/05/02 04:59:16;;;;;;;13.43;6.93;;;26.70;56.30;;;;;;5069127;28;20440;-66
2021/05/02 05:01:44;;;;;;;8.48;4.82;;;26.30;56.50;;;;;;5069463;28;20020;-66
2021/05/02 05:04:13;;;;;;;5.30;3.92;;;26.30;58.00;;;;;;5066327;28;20500;-64
2021/05/02 05:06:42;;;;;;;5.57;4.50;;;26.30;57.60;;;;;;5063099;28;20465;-72
2021/05/02 05:09:10;;;;;;;8.15;3.50;;;26.30;56.90;;;;;;5074874;28;20027;-71
2021/05/02 05:11:39;;;;;;;4.32;3.33;;;26.40;56.50;;;;;;5073630;28;20021;-63
2021/05/02 05:14:49;;;;;;;7.43;3.90;;;26.30;57.10;;;;;;5076267;28;20485;-68
2021/05/02 05:17:22;;;;;;;5.10;3.17;;;26.30;57.60;;;;;;5064612;28;20059;-71
2021/05/02 05:19:49;;;;;;;3.78;3.30;;;26.30;55.00;;;;;;5069327;28;20024;-64
2021/05/02 05:22:16;;;;;;;5.28;3.42;;;26.30;56.20;;;;;;5067807;28;20051;-64
2021/05/02 05:24:44;;;;;;;6.07;3.90;;;26.30;55.00;;;;;;5068854;28;20028;-68
2021/05/02 05:27:11;;;;;;;3.90;3.33;;;25.90;57.00;;;;;;5068096;28;20388;-64
2021/05/02 05:29:39;;;;;;;10.55;4.10;;;25.60;57.90;;;;;;5065617;28;20106;-66
2021/05/02 05:32:06;;;;;;;10.25;5.13;;;25.50;56.60;;;;;;5067939;28;20074;-68
2021/05/02 05:34:34;;;;;;;6.65;3.90;;;25.40;58.40;;;;;;5068770;28;20132;-69
2021/05/02 05:37:01;;;;;;;14.70;6.57;;;25.40;58.30;;;;;;5068626;28;20406;-71
2021/05/02 05:39:28;;;;;;;4.60;3.25;;;25.70;58.60;;;;;;5068676;28;20418;-66
2021/05/02 05:41:56;;;;;;;4.30;2.55;;;26.00;56.40;;;;;;5066093;28;20025;-66
2021/05/02 05:44:23;;;;;;;31.38;9.52;;;25.90;55.90;;;;;;5084531;28;20040;-62
2021/05/02 05:47:20;;;;;;;9.10;3.70;;;26.00;55.00;;;;;;5083925;28;20048;-65
2021/05/02 05:49:50;;;;;;;4.55;3.13;;;25.70;57.20;;;;;;5079966;28;20119;-65
2021/05/02 05:52:30;;;;;;;46.80;15.57;;;25.50;57.00;;;;;;5085837;28;20016;-70
2021/05/02 05:55:00;;;;;;;5.47;2.30;;;25.50;56.90;;;;;;5074686;28;20036;-66
2021/05/02 05:57:28;;;;;;;6.47;1.67;;;25.40;57.50;;;;;;5088625;28;20021;-63
2021/05/02 06:00:20;;;;;;;7.00;2.00;;;25.10;57.40;;;;;;4373406;28;9999970;-68
2021/05/02 06:02:47;;;;;;;;;;;24.70;58.90;;;;;;5079297;28;20348;-67
2021/05/02 06:05:21;;;;;;;2.63;1.02;;;24.30;59.70;;;;;;5069949;28;19939;-65
2021/05/02 06:08:11;;;;;;;1.88;1.00;;;24.00;60.60;;;;;;5087163;28;20043;-65
2021/05/02 06:10:40;;;;;;;3.47;0.95;;;23.70;62.30;;;;;;5081047;28;20013;-63
2021/05/02 06:13:08;;;;;;;4.35;1.33;;;23.40;63.40;;;;;;5080629;28;20108;-61
2021/05/02 06:15:51;;;;;;;2.40;1.15;;;23.20;63.60;;;;;;5063392;28;20024;-61
2021/05/02 06:18:30;;;;;;;4.18;1.60;;;23.10;65.30;;;;;;5075733;28;20028;-67
2021/05/02 06:20:57;;;;;;;4.07;1.40;;;23.00;65.00;;;;;;5060727;28;20292;-62
2021/05/02 06:23:25;;;;;;;4.82;1.23;;;22.80;66.10;;;;;;5061475;28;20021;-74
2021/05/02 06:25:52;;;;;;;3.50;1.63;;;22.70;66.70;;;;;;5060542;28;20046;-69
2021/05/02 06:28:19;;;;;;;4.80;1.27;;;22.50;67.40;;;;;;5061396;28;20029;-70
2021/05/02 06:30:47;;;;;;;2.50;1.00;;;22.40;67.90;;;;;;5063687;28;20029;-69
2021/05/02 06:33:14;;;;;;;4.57;1.10;;;22.30;68.00;;;;;;5062434;28;20039;-64
2021/05/02 06:35:41;;;;;;;4.55;1.35;;;22.10;69.40;;;;;;5055076;28;20047;-65
2021/05/02 06:38:08;;;;;;;1.95;1.05;;;22.10;69.00;;;;;;5061641;28;20035;-68
2021/05/02 06:40:36;;;;;;;4.75;1.33;;;22.00;69.30;;;;;;5060922;28;20477;-68
2021/05/02 06:43:03;;;;;;;4.30;1.10;;;21.90;70.00;;;;;;5062520;28;20437;-69
2021/05/02 06:45:33;;;;;;;6.28;1.52;;;21.90;70.10;;;;;;5062244;28;20021;-73
2021/05/02 06:48:01;;;;;;;5.57;1.80;;;21.80;70.50;;;;;;5062837;28;20037;-67
2021/05/02 06:50:28;;;;;;;2.70;1.27;;;21.80;70.80;;;;;;5062750;28;20028;-71
2021/05/02 06:52:55;;;;;;;4.00;1.42;;;21.70;71.50;;;;;;5059986;28;20029;-69
2021/05/02 06:55:22;;;;;;;6.95;1.45;;;21.70;70.60;;;;;;5062692;28;20031;-65
2021/05/02 06:57:50;;;;;;;2.20;1.20;;;21.70;71.30;;;;;;5062461;28;20025;-67
2021/05/02 07:00:18;;;;;;;2.67;1.25;;;21.50;71.70;;;;;;5059819;28;20021;-69
2021/05/02 07:02:45;;;;;;;11.13;1.60;;;21.50;72.10;;;;;;5062218;28;20032;-67
2021/05/02 07:05:12;;;;;;;2.60;1.10;;;21.40;72.50;;;;;;5062555;28;20028;-71
2021/05/02 07:07:40;;;;;;;6.45;1.63;;;21.30;72.90;;;;;;5060895;28;20037;-71
2021/05/02 07:10:08;;;;;;;4.85;1.40;;;21.20;74.20;;;;;;5060723;28;20485;-73
2021/05/02 07:12:35;;;;;;;5.65;1.42;;;21.10;75.10;;;;;;5060557;28;20082;-71
2021/05/02 07:15:03;;;;;;;3.28;1.40;;;21.00;75.20;;;;;;5061004;28;20041;-66
2021/05/02 07:17:31;;;;;;;3.45;1.88;;;20.90;75.90;;;;;;5059224;28;20029;-73
2021/05/02 07:19:59;;;;;;;4.63;1.45;;;20.80;76.30;;;;;;5060035;28;20077;-67
2021/05/02 07:22:28;;;;;;;4.85;1.55;;;20.70;77.00;;;;;;5059881;28;20093;-66
2021/05/02 07:24:57;;;;;;;5.28;1.80;;;20.70;77.80;;;;;;5059557;28;20455;-67
2021/05/02 07:27:45;;;;;;;2.97;1.52;;;20.60;78.20;;;;;;5064886;28;20100;-70
2021/05/02 07:30:32;;;;;;;3.85;1.80;;;20.60;77.50;;;;;;5078153;28;20060;-65
2021/05/02 07:33:03;;;;;;;6.30;1.50;;;20.50;77.90;;;;;;5062650;28;20843;-70
2021/05/02 07:35:33;;;;;;;6.20;1.75;;;20.50;78.40;;;;;;5071527;28;20135;-67
2021/05/02 07:38:03;;;;;;;5.60;1.42;;;20.40;78.80;;;;;;5067707;28;20025;-65
2021/05/02 07:40:32;;;;;;;6.03;1.55;;;20.40;79.70;;;;;;5063849;28;20058;-65
2021/05/02 07:43:04;;;;;;;4.20;1.30;;;20.20;79.80;;;;;;5069010;28;20024;-63
2021/05/02 07:45:32;;;;;;;3.80;1.52;;;20.20;80.10;;;;;;5073351;28;20093;-65
2021/05/02 07:47:59;;;;;;;5.50;1.55;;;20.20;80.40;;;;;;5061437;28;20024;-67
2021/05/02 07:50:26;;;;;;;5.28;2.13;;;20.10;80.50;;;;;;5062490;28;20032;-64
2021/05/02 07:52:54;;;;;;;3.13;1.75;;;20.00;80.90;;;;;;5072787;28;20162;-64
2021/05/02 07:55:21;;;;;;;3.65;1.60;;;20.00;80.90;;;;;;5061845;28;20469;-67
2021/05/02 07:57:48;;;;;;;7.40;2.30;;;19.90;81.60;;;;;;5062478;28;20036;-61
2021/05/02 08:00:19;;;;;;;6.00;2.70;;;19.80;82.20;;;;;;5059100;28;20096;-66
2021/05/02 08:02:47;;;;;;;7.78;4.80;;;19.80;82.30;;;;;;5062410;28;20020;-63
2021/05/02 08:05:14;;;;;;;4.13;2.67;;;19.80;82.60;;;;;;5060816;28;20662;-69
2021/05/02 08:07:43;;;;;;;8.52;6.93;;;19.70;82.80;;;;;;5065762;28;20388;-64
2021/05/02 08:10:11;;;;;;;7.20;4.28;;;19.60;83.20;;;;;;5067738;28;20029;-66
2021/05/02 08:12:38;;;;;;;6.60;3.05;;;19.50;83.60;;;;;;5064471;28;20086;-62
2021/05/02 08:15:07;;;;;;;6.35;3.08;;;19.30;84.30;;;;;;5065456;28;20024;-63
2021/05/02 08:17:36;;;;;;;5.73;2.80;;;19.10;85.10;;;;;;4711491;28;9999599;-64
2021/05/02 08:20:06;;;;;;;5.45;3.55;;;19.10;85.80;;;;;;5060686;28;20074;-65
2021/05/02 08:22:33;;;;;;;7.47;2.50;;;19.00;86.10;;;;;;5057167;28;20603;-62
2021/05/02 08:25:01;;;;;;;7.93;3.60;;;18.80;86.80;;;;;;5057812;28;20071;-62
2021/05/02 08:27:28;;;;;;;6.70;3.08;;;18.90;86.60;;;;;;5058279;28;20381;-64
2021/05/02 08:29:56;;;;;;;6.65;2.70;;;18.80;87.20;;;;;;5058890;28;20550;-65
2021/05/02 08:32:23;;;;;;;4.00;1.98;;;18.90;86.60;;;;;;5065564;28;20048;-62
2021/05/02 08:34:50;;;;;;;4.22;2.05;;;18.80;86.50;;;;;;5058535;28;20052;-64
2021/05/02 08:37:18;;;;;;;5.82;2.17;;;18.70;86.90;;;;;;5063307;28;20025;-64
2021/05/02 08:39:45;;;;;;;4.22;1.92;;;18.60;87.20;;;;;;5062159;28;20099;-66
2021/05/02 08:42:19;;;;;;;5.00;2.10;;;18.60;87.60;;;;;;5068892;28;20107;-66
2021/05/02 08:44:51;;;;;;;7.18;2.50;;;18.60;87.50;;;;;;5062596;28;20075;-64
2021/05/02 08:47:19;;;;;;;5.55;1.98;;;18.60;87.80;;;;;;5065998;28;20031;-65
2021/05/02 08:49:49;;;;;;;4.70;2.05;;;18.50;87.70;;;;;;5065448;28;20032;-66
2021/05/02 08:52:18;;;;;;;4.78;1.75;;;18.50;87.70;;;;;;5065967;28;20043;-66
2021/05/02 08:54:52;;;;;;;3.42;1.80;;;18.40;88.10;;;;;;5063890;28;20108;-63
2021/05/02 08:57:29;;;;;;;2.90;1.70;;;18.30;88.90;;;;;;5065986;28;20028;-67
2021/05/02 08:59:57;;;;;;;3.45;1.88;;;18.20;89.00;;;;;;5067008;28;20516;-64
2021/05/02 09:02:26;;;;;;;5.55;1.67;;;18.10;90.00;;;;;;5070608;28;20043;-63
2021/05/02 09:05:03;;;;;;;8.25;2.17;;;18.10;90.00;;;;;;5064896;28;20602;-61
2021/05/02 09:07:53;;;;;;;5.90;2.17;;;18.10;90.00;;;;;;5074387;28;20026;-65
2021/05/02 09:10:21;;;;;;;8.73;2.53;;;18.10;89.90;;;;;;5060340;28;20032;-63
2021/05/02 09:13:02;;;;;;;4.63;2.33;;;18.10;90.30;;;;;;5060240;28;20043;-63
2021/05/02 09:15:30;;;;;;;5.40;2.40;;;18.00;90.30;;;;;;5061585;28;20060;-66
2021/05/02 09:18:16;;;;;;;6.35;3.17;;;17.90;90.30;;;;;;5061958;28;20416;-67
2021/05/02 09:20:54;;;;;;;3.97;3.25;;;17.80;90.60;;;;;;5060547;28;20034;-67
2021/05/02 09:23:21;;;;;;;7.40;3.50;;;17.70;90.80;;;;;;5060075;28;20587;-66
2021/05/02 09:25:53;;;;;;;6.82;2.10;;;17.70;90.80;;;;;;5060892;28;20025;-65
2021/05/02 09:28:47;;;;;;;4.50;2.25;;;17.70;90.80;;;;;;5062292;28;20490;-66
2021/05/02 09:31:20;;;;;;;6.05;2.45;;;17.60;91.10;;;;;;5060213;28;20806;-68
2021/05/02 09:33:48;;;;;;;3.40;1.98;;;17.80;91.00;;;;;;5060905;28;20048;-69
2021/05/02 09:36:18;;;;;;;6.60;2.90;;;17.80;90.60;;;;;;5058593;28;20029;-71
2021/05/02 09:38:46;;;;;;;6.60;2.22;;;17.70;90.70;;;;;;5059355;28;20052;-74
2021/05/02 09:41:15;;;;;;;5.72;1.95;;;17.70;90.80;;;;;;5059850;28;20094;-70
2021/05/02 09:43:44;;;;;;;4.80;2.35;;;17.60;91.10;;;;;;5061101;28;20445;-66
2021/05/02 09:46:32;;;;;;;6.43;2.10;;;17.60;91.30;;;;;;5060437;28;20028;-71
2021/05/02 09:49:15;;;;;;;5.30;1.90;;;17.60;91.20;;;;;;5055702;28;20016;-66
2021/05/02 09:51:51;;;;;;;5.45;1.95;;;17.50;91.30;;;;;;5080432;28;20031;-75
2021/05/02 09:54:23;;;;;;;2.83;1.88;;;17.40;91.50;;;;;;5061440;28;20111;-65
2021/05/02 09:56:58;;;;;;;12.40;2.58;;;17.30;91.60;;;;;;5052489;28;20103;-66
2021/05/02 09:59:30;;;;;;;5.10;1.95;;;17.20;91.60;;;;;;5054935;28;20036;-73
2021/05/02 10:02:12;;;;;;;6.20;2.15;;;17.20;92.00;;;;;;5058978;28;20028;-74
2021/05/02 10:04:56;;;;;;;5.38;2.00;;;17.10;91.80;;;;;;5059189;28;20536;-69
2021/05/02 10:07:30;;;;;;;4.20;2.13;;;17.20;92.10;;;;;;5056920;28;20115;-70
2021/05/02 10:09:58;;;;;;;6.18;2.13;;;17.10;91.90;;;;;;5058682;28;20434;-64
2021/05/02 10:12:26;;;;;;;5.32;1.83;;;17.10;91.80;;;;;;5058517;28;20370;-71
2021/05/02 10:14:54;;;;;;;6.43;2.83;;;17.10;91.80;;;;;;5058654;28;20020;-64
2021/05/02 10:17:21;;;;;;;4.10;2.30;;;16.90;92.10;;;;;;5060404;28;20024;-71
2021/05/02 10:19:49;;;;;;;6.68;2.20;;;16.90;92.10;;;;;;5058931;28;20673;-72
2021/05/02 10:22:18;;;;;;;5.57;2.22;;;16.80;92.20;;;;;;5058529;28;20031;-69
2021/05/02 10:24:46;;;;;;;4.78;2.60;;;16.70;92.40;;;;;;5055204;28;20500;-64
2021/05/02 10:27:14;;;;;;;5.93;3.00;;;16.60;92.70;;;;;;4705766;28;10000170;-65
2021/05/02 10:29:47;;;;;;;7.72;2.40;;;16.50;92.70;;;;;;5059061;28;20127;-65
2021/05/02 10:32:15;;;;;;;5.93;2.78;;;16.50;92.60;;;;;;5058145;28;20675;-64
2021/05/02 10:34:46;;;;;;;8.52;3.00;;;16.50;92.90;;;;;;5056750;28;20049;-66
2021/05/02 10:37:32;;;;;;;30.60;22.73;;;16.40;92.60;;;;;;5058305;28;20035;-70
2021/05/02 10:40:10;;;;;;;64.55;50.75;;;16.30;92.90;;;;;;5056053;28;20492;-65
2021/05/02 10:42:44;;;;;;;11.80;8.15;;;16.20;93.10;;;;;;5055838;28;20344;-71
2021/05/02 10:45:51;;;;;;;6.07;3.38;;;16.10;93.10;;;;;;5057259;28;20032;-67
2021/05/02 10:48:24;;;;;;;19.15;15.70;;;16.10;93.10;;;;;;5059299;28;20111;-72
2021/05/02 10:50:54;;;;;;;9.80;3.53;;;16.10;93.40;;;;;;5059730;28;20037;-73
2021/05/02 10:53:23;;;;;;;8.05;4.07;;;16.00;93.70;;;;;;5058122;28;20032;-66
2021/05/02 10:56:08;;;;;;;6.75;2.83;;;16.00;93.90;;;;;;5059569;28;20024;-68
2021/05/02 10:58:40;;;;;;;5.63;3.85;;;16.00;94.20;;;;;;5059253;28;20059;-68
2021/05/02 11:01:10;;;;;;;6.13;3.47;;;16.00;93.90;;;;;;5058165;28;20519;-70
2021/05/02 11:03:40;;;;;;;4.68;2.78;;;16.00;94.00;;;;;;5058607;28;20847;-74
2021/05/02 11:06:11;;;;;;;6.25;3.50;;;16.00;93.90;;;;;;5056275;28;20494;-66
2021/05/02 11:08:56;;;;;;;6.25;2.85;;;15.90;94.00;;;;;;5058796;28;20384;-68
2021/05/02 11:11:33;;;;;;;5.40;2.70;;;15.90;94.10;;;;;;5058745;28;20016;-66
2021/05/02 11:14:10;;;;;;;9.77;2.85;;;15.80;94.10;;;;;;5057037;28;20055;-71
2021/05/02 11:16:49;;;;;;;7.15;2.85;;;15.70;94.10;;;;;;5057544;28;20097;-72
2021/05/02 11:19:25;;;;;;;7.53;3.10;;;15.60;94.30;;;;;;5061063;28;20029;-66
2021/05/02 11:21:52;;;;;;;5.95;2.50;;;15.60;94.30;;;;;;5061173;28;20028;-67
2021/05/02 11:24:23;;;;;;;5.38;2.95;;;15.50;94.30;;;;;;5057240;28;20305;-70
2021/05/02 11:27:07;;;;;;;3.72;2.58;;;15.50;94.50;;;;;;5059946;28;20025;-67
2021/05/02 11:29:51;;;;;;;6.88;3.03;;;15.60;94.50;;;;;;5059848;28;20043;-72
2021/05/02 11:32:31;;;;;;;6.75;3.03;;;15.50;94.20;;;;;;5058244;28;20377;-65
2021/05/02 11:35:04;;;;;;;5.78;2.78;;;15.50;94.60;;;;;;5058471;28;20068;-65
2021/05/02 11:37:54;;;;;;;4.85;2.78;;;15.50;94.50;;;;;;5058760;28;20509;-67
2021/05/02 11:40:27;;;;;;;7.28;3.15;;;15.50;94.50;;;;;;5059397;28;20044;-66
2021/05/02 11:43:00;;;;;;;10.60;3.30;;;15.50;94.60;;;;;;5060086;28;20074;-64
2021/05/02 11:45:47;;;;;;;10.65;3.40;;;15.40;95.00;;;;;;5062743;28;20028;-65
2021/05/02 11:48:25;;;;;;;5.82;3.15;;;15.50;94.70;;;;;;5062284;28;20021;-66
2021/05/02 11:51:02;;;;;;;8.75;3.28;;;15.40;94.80;;;;;;5062763;28;20028;-65
2021/05/02 11:53:42;;;;;;;8.60;3.65;;;15.40;94.90;;;;;;5057581;28;20036;-69
2021/05/02 11:56:28;;;;;;;8.18;3.78;;;15.40;94.90;;;;;;5062687;28;20490;-63
2021/05/02 11:59:01;;;;;;;6.82;3.20;;;15.40;94.90;;;;;;5058276;28;20111;-71
2021/05/02 12:01:30;;;;;;;5.63;3.45;;;15.40;94.90;;;;;;5063871;28;20256;-64
2021/05/02 12:04:11;;;;;;;7.13;3.22;;;15.30;94.80;;;;;;5063918;28;20484;-71
2021/05/02 12:06:39;;;;;;;10.63;4.00;;;15.20;95.20;;;;;;5063756;28;20028;-64
2021/05/02 12:09:18;;;;;;;6.18;3.45;;;15.20;95.20;;;;;;5064194;28;20461;-63
2021/05/02 12:11:53;;;;;;;6.97;3.17;;;15.20;95.30;;;;;;5063036;28;20024;-70
2021/05/02 12:14:22;;;;;;;6.88;3.17;;;15.10;95.50;;;;;;5063140;28;20059;-64
2021/05/02 12:16:55;;;;;;;7.07;3.03;;;15.10;95.10;;;;;;5063337;28;20052;-71
2021/05/02 12:19:23;;;;;;;8.95;2.90;;;15.10;95.50;;;;;;5063431;28;20025;-64
2021/05/02 12:21:50;;;;;;;8.00;3.85;;;15.10;95.30;;;;;;5062036;28;20032;-70
2021/05/02 12:24:29;;;;;;;10.02;3.78;;;15.10;95.70;;;;;;5062755;28;20062;-63
2021/05/02 12:27:08;;;;;;;9.07;3.20;;;15.10;95.50;;;;;;5063862;28;20043;-63
2021/05/02 12:29:38;;;;;;;11.43;4.15;;;15.10;95.20;;;;;;5065344;28;20108;-63
2021/05/02 12:32:07;;;;;;;7.95;3.45;;;15.10;95.40;;;;;;5063860;28;20103;-64
2021/05/02 12:34:39;;;;;;;31.65;6.40;;;15.10;95.40;;;;;;5062509;28;20047;-63
2021/05/02 12:37:16;;;;;;;76.93;10.02;;;15.20;95.40;;;;;;5058284;28;20334;-62
2021/05/02 12:39:46;;;;;;;49.70;6.82;;;15.30;95.50;;;;;;5061985;28;20353;-63
2021/05/02 12:42:13;;;;;;;50.47;9.77;;;15.30;95.30;;;;;;5064124;28;20028;-70
2021/05/02 12:44:51;;;;;;;51.83;7.60;;;15.30;95.40;;;;;;5064461;28;20059;-63
2021/05/02 12:47:20;;;;;;;55.20;8.38;;;15.20;95.20;;;;;;5065927;28;20092;-70
2021/05/02 12:50:03;;;;;;;35.60;7.15;;;15.20;95.10;;;;;;5059370;28;20051;-70
2021/05/02 12:52:30;;;;;;;;;;;15.10;95.00;;;;;;5060096;28;20021;-63
2021/05/02 12:55:15;;;;;;;31.83;7.55;;;15.10;95.10;;;;;;5064879;28;19947;-63
2021/05/02 12:57:47;;;;;;;28.88;6.18;;;15.10;95.30;;;;;;5065477;28;20605;-70
2021/05/02 13:00:18;;;;;;;28.67;6.57;;;15.00;95.20;;;;;;5064085;28;20021;-64
2021/05/02 13:02:46;;;;;;;23.20;6.25;;;14.90;95.50;;;;;;5065887;28;20139;-63
2021/05/02 13:05:20;;;;;;;20.58;7.07;;;14.90;95.50;;;;;;5059465;28;20573;-63
2021/05/02 13:07:49;;;;;;;22.13;6.55;;;14.80;95.90;;;;;;5065474;28;20418;-69
2021/05/02 13:10:23;;;;;;;25.63;6.28;;;15.00;96.20;;;;;;5065678;28;20385;-70